首页
METAR-TAF:

METAR-TAF

机场 :

哈立德国王国际机场

利雅德, 沙特阿拉伯

纬度: 24-56N, 经度: 046-43E, 海拔: 614米

当前天气观测

该预报发布于15分钟前的19:00 UTC
风速5节,风向东南
温度 23°C
湿度 23%
气压 1017 hPa
能见度10公里或以上
1500米以下无云,无积雨云

METAR: OERK 181900Z 14005KT CAVOK 23/01 Q1017 NOSIG

时间: 22:15 (19:15 UTC)

预报

该预报发布于2小时和15分钟前的17:00 UTC
预报有效从18日的 18点(UTC)到 19日的 24点(UTC)
风速10节,风向南转西南
能見度: 7000
成为
从 19日的 06点(UTC)到 19日的 08点(UTC)
风速17节,风向
短暂存在
从 19日的 06点(UTC)到 19日的 15点(UTC)
能見度: 4000
高吹尘
成为
从 19日的 18点(UTC)到 19日的 20点(UTC)
风速7节,风向南转南东

TAF: OERK 181700Z 1818/1924 20010KT 7000 NSC BECMG 1906/1908 18017KT TEMPO 1906/1915 4000 BLDU BECMG 1918/1920 16007KT

超过4000个机场的气象观测和天气预报(METAR&TAF报告)。

可查询的气象台以黄色和红色小点在地图上表示。

将鼠标移到小点上方,可查看气象台名称。

然后点击查看天气观测和预报。

如需切换地图:点击带黑十字的绿色按钮放大地图;点击带横线的绿色按钮缩小地图;或者点击绿色箭头查看邻近地区的地图。


METAR-TAF: